sensor_id;sensor_type;location;lat;lon;timestamp;P1;P2;P0
76049;PMS7003;64967;50.234;19.224;2023-09-18T00:01:47;3.67;2.00;2.00
76049;PMS7003;64967;50.234;19.224;2023-09-18T00:04:14;1.00;1.00;1.00
76049;PMS7003;64967;50.234;19.224;2023-09-18T00:06:41;1.00;1.00;1.00
76049;PMS7003;64967;50.234;19.224;2023-09-18T00:09:08;1.00;1.00;1.00
76049;PMS7003;64967;50.234;19.224;2023-09-18T00:11:38;1.67;1.00;1.00
76049;PMS7003;64967;50.234;19.224;2023-09-18T00:14:05;2.00;1.67;1.00
76049;PMS7003;64967;50.234;19.224;2023-09-18T00:16:32;1.00;1.00;1.00
76049;PMS7003;64967;50.234;19.224;2023-09-18T00:19:17;0.67;0.33;0.00
76049;PMS7003;64967;50.234;19.224;2023-09-18T00:21:44;1.67;0.67;0.67
76049;PMS7003;64967;50.234;19.224;2023-09-18T00:24:11;1.00;1.00;1.00
76049;PMS7003;64967;50.234;19.224;2023-09-18T00:26:38;1.00;1.00;1.00
76049;PMS7003;64967;50.234;19.224;2023-09-18T00:29:05;2.00;1.00;1.00
76049;PMS7003;64967;50.234;19.224;2023-09-18T00:31:32;1.33;1.33;1.00
76049;PMS7003;64967;50.234;19.224;2023-09-18T00:34:02;1.67;1.67;1.67
76049;PMS7003;64967;50.234;19.224;2023-09-18T00:36:29;2.00;2.00;2.00
76049;PMS7003;64967;50.234;19.224;2023-09-18T00:38:58;2.00;2.00;2.00
76049;PMS7003;64967;50.234;19.224;2023-09-18T00:41:25;2.00;2.00;2.00
76049;PMS7003;64967;50.234;19.224;2023-09-18T00:43:52;2.67;2.67;2.00
76049;PMS7003;64967;50.234;19.224;2023-09-18T00:46:21;1.00;1.00;1.00
76049;PMS7003;64967;50.234;19.224;2023-09-18T00:48:51;2.00;2.00;2.00
76049;PMS7003;64967;50.234;19.224;2023-09-18T00:51:19;2.00;2.00;2.00
76049;PMS7003;64967;50.234;19.224;2023-09-18T00:53:48;3.00;2.00;2.00
76049;PMS7003;64967;50.234;19.224;2023-09-18T00:56:16;2.00;1.00;1.00
76049;PMS7003;64967;50.234;19.224;2023-09-18T00:58:46;2.00;2.00;2.00
76049;PMS7003;64967;50.234;19.224;2023-09-18T01:01:15;1.00;1.00;1.00
76049;PMS7003;64967;50.234;19.224;2023-09-18T01:03:49;1.67;1.67;1.00
76049;PMS7003;64967;50.234;19.224;2023-09-18T01:06:18;2.00;2.00;1.00
76049;PMS7003;64967;50.234;19.224;2023-09-18T01:08:47;2.00;2.00;2.00
76049;PMS7003;64967;50.234;19.224;2023-09-18T01:11:29;2.33;2.33;2.00
76049;PMS7003;64967;50.234;19.224;2023-09-18T01:14:07;1.00;1.00;1.00
76049;PMS7003;64967;50.234;19.224;2023-09-18T01:16:50;1.67;1.67;1.33
76049;PMS7003;64967;50.234;19.224;2023-09-18T01:19:36;1.67;1.00;1.00
76049;PMS7003;64967;50.234;19.224;2023-09-18T01:22:05;1.33;1.00;1.00
76049;PMS7003;64967;50.234;19.224;2023-09-18T01:24:33;0.67;0.67;0.67
76049;PMS7003;64967;50.234;19.224;2023-09-18T01:27:02;1.00;1.00;1.00
76049;PMS7003;64967;50.234;19.224;2023-09-18T01:29:31;1.00;1.00;1.00
76049;PMS7003;64967;50.234;19.224;2023-09-18T01:31:58;2.33;2.33;2.00
76049;PMS7003;64967;50.234;19.224;2023-09-18T01:34:25;2.00;2.00;1.00
76049;PMS7003;64967;50.234;19.224;2023-09-18T01:36:59;1.00;1.00;0.00
76049;PMS7003;64967;50.234;19.224;2023-09-18T01:39:27;1.00;1.00;1.00
76049;PMS7003;64967;50.234;19.224;2023-09-18T01:41:58;3.00;2.67;2.00
76049;PMS7003;64967;50.234;19.224;2023-09-18T01:44:30;1.67;1.67;1.67
76049;PMS7003;64967;50.234;19.224;2023-09-18T01:46:58;2.00;2.00;1.33
76049;PMS7003;64967;50.234;19.224;2023-09-18T01:49:28;2.00;2.00;2.00
76049;PMS7003;64967;50.234;19.224;2023-09-18T01:51:59;2.33;2.00;1.33
76049;PMS7003;64967;50.234;19.224;2023-09-18T01:54:26;1.33;1.33;1.00
76049;PMS7003;64967;50.234;19.224;2023-09-18T01:56:53;3.00;2.00;2.00
76049;PMS7003;64967;50.234;19.224;2023-09-18T01:59:20;4.00;2.67;2.00
76049;PMS7003;64967;50.234;19.224;2023-09-18T02:01:49;0.33;0.00;0.00
76049;PMS7003;64967;50.234;19.224;2023-09-18T02:04:17;3.33;2.00;2.00
76049;PMS7003;64967;50.234;19.224;2023-09-18T02:07:05;1.67;1.67;1.67
76049;PMS7003;64967;50.234;19.224;2023-09-18T02:09:32;3.33;2.00;1.67
76049;PMS7003;64967;50.234;19.224;2023-09-18T02:11:59;3.00;2.33;2.00
76049;PMS7003;64967;50.234;19.224;2023-09-18T02:14:26;2.00;1.33;1.33
76049;PMS7003;64967;50.234;19.224;2023-09-18T02:16:53;2.00;2.00;2.00
76049;PMS7003;64967;50.234;19.224;2023-09-18T02:19:20;2.00;2.00;2.00
76049;PMS7003;64967;50.234;19.224;2023-09-18T02:21:47;3.00;2.00;2.00
76049;PMS7003;64967;50.234;19.224;2023-09-18T02:24:14;5.67;5.00;5.00
76049;PMS7003;64967;50.234;19.224;2023-09-18T02:26:41;5.00;4.67;4.00
76049;PMS7003;64967;50.234;19.224;2023-09-18T02:29:08;4.00;4.00;4.00
76049;PMS7003;64967;50.234;19.224;2023-09-18T02:31:40;3.33;2.00;2.00
76049;PMS7003;64967;50.234;19.224;2023-09-18T02:34:07;4.00;3.00;3.00
76049;PMS7003;64967;50.234;19.224;2023-09-18T02:36:35;2.33;2.33;2.00
76049;PMS7003;64967;50.234;19.224;2023-09-18T02:39:02;3.00;3.00;2.00
76049;PMS7003;64967;50.234;19.224;2023-09-18T02:41:29;1.67;1.00;0.00
76049;PMS7003;64967;50.234;19.224;2023-09-18T02:43:56;3.67;2.67;2.33
76049;PMS7003;64967;50.234;19.224;2023-09-18T02:46:23;4.00;3.33;2.33
76049;PMS7003;64967;50.234;19.224;2023-09-18T02:48:50;1.67;1.67;1.00
76049;PMS7003;64967;50.234;19.224;2023-09-18T02:51:17;2.33;2.33;2.00
76049;PMS7003;64967;50.234;19.224;2023-09-18T02:53:44;1.67;1.67;1.67
76049;PMS7003;64967;50.234;19.224;2023-09-18T02:56:11;1.00;1.00;1.00
76049;PMS7003;64967;50.234;19.224;2023-09-18T02:58:38;2.00;1.33;1.00
76049;PMS7003;64967;50.234;19.224;2023-09-18T03:01:06;1.00;1.00;1.00
76049;PMS7003;64967;50.234;19.224;2023-09-18T03:03:33;3.00;3.00;3.00
76049;PMS7003;64967;50.234;19.224;2023-09-18T03:06:01;2.00;2.00;1.00
76049;PMS7003;64967;50.234;19.224;2023-09-18T03:08:31;2.33;2.33;2.00
76049;PMS7003;64967;50.234;19.224;2023-09-18T03:10:58;2.00;2.00;2.00
76049;PMS7003;64967;50.234;19.224;2023-09-18T03:13:30;2.67;2.67;2.33
76049;PMS7003;64967;50.234;19.224;2023-09-18T03:15:57;3.00;3.00;2.33
76049;PMS7003;64967;50.234;19.224;2023-09-18T03:18:24;2.00;2.00;2.00
76049;PMS7003;64967;50.234;19.224;2023-09-18T03:20:54;3.00;3.00;2.00
76049;PMS7003;64967;50.234;19.224;2023-09-18T03:23:21;4.00;3.00;2.67
76049;PMS7003;64967;50.234;19.224;2023-09-18T03:25:48;4.00;4.00;3.00
76049;PMS7003;64967;50.234;19.224;2023-09-18T03:28:17;3.00;3.00;3.00
76049;PMS7003;64967;50.234;19.224;2023-09-18T03:30:44;3.00;3.00;2.33
76049;PMS7003;64967;50.234;19.224;2023-09-18T03:33:11;3.00;3.00;3.00
76049;PMS7003;64967;50.234;19.224;2023-09-18T03:35:45;3.00;3.00;2.00
76049;PMS7003;64967;50.234;19.224;2023-09-18T03:38:17;3.00;3.00;2.00
76049;PMS7003;64967;50.234;19.224;2023-09-18T03:40:45;5.33;5.33;4.67
76049;PMS7003;64967;50.234;19.224;2023-09-18T03:43:12;3.67;3.67;3.00
76049;PMS7003;64967;50.234;19.224;2023-09-18T03:45:39;4.00;4.00;3.00
76049;PMS7003;64967;50.234;19.224;2023-09-18T03:48:09;4.00;4.00;3.67
76049;PMS7003;64967;50.234;19.224;2023-09-18T03:50:37;2.67;2.67;2.33
76049;PMS7003;64967;50.234;19.224;2023-09-18T03:53:07;3.33;3.00;2.33
76049;PMS7003;64967;50.234;19.224;2023-09-18T03:55:35;4.00;4.00;3.00
76049;PMS7003;64967;50.234;19.224;2023-09-18T03:58:01;2.67;2.67;2.33
76049;PMS7003;64967;50.234;19.224;2023-09-18T04:00:29;4.67;4.67;3.00
76049;PMS7003;64967;50.234;19.224;2023-09-18T04:02:56;4.00;4.00;3.00
76049;PMS7003;64967;50.234;19.224;2023-09-18T04:05:23;3.00;3.00;3.00
76049;PMS7003;64967;50.234;19.224;2023-09-18T04:07:50;6.00;5.00;4.33
76049;PMS7003;64967;50.234;19.224;2023-09-18T04:10:18;4.00;3.67;3.33
76049;PMS7003;64967;50.234;19.224;2023-09-18T04:12:50;4.33;4.00;4.00
76049;PMS7003;64967;50.234;19.224;2023-09-18T04:15:18;6.00;6.00;5.00
76049;PMS7003;64967;50.234;19.224;2023-09-18T04:17:46;4.00;4.00;3.67
76049;PMS7003;64967;50.234;19.224;2023-09-18T04:20:14;6.00;6.00;5.00
76049;PMS7003;64967;50.234;19.224;2023-09-18T04:22:43;3.33;3.00;2.67
76049;PMS7003;64967;50.234;19.224;2023-09-18T04:25:11;8.00;8.00;6.33
76049;PMS7003;64967;50.234;19.224;2023-09-18T04:27:39;7.00;7.00;6.33
76049;PMS7003;64967;50.234;19.224;2023-09-18T04:30:07;9.33;8.33;6.00
76049;PMS7003;64967;50.234;19.224;2023-09-18T04:32:38;7.00;6.00;5.00
76049;PMS7003;64967;50.234;19.224;2023-09-18T04:35:05;7.00;7.00;6.00
76049;PMS7003;64967;50.234;19.224;2023-09-18T04:37:36;5.00;5.00;4.00
76049;PMS7003;64967;50.234;19.224;2023-09-18T04:40:07;6.33;5.33;4.33
76049;PMS7003;64967;50.234;19.224;2023-09-18T04:42:38;5.33;5.33;5.00
76049;PMS7003;64967;50.234;19.224;2023-09-18T04:45:06;5.00;5.00;4.33
76049;PMS7003;64967;50.234;19.224;2023-09-18T04:47:34;5.00;5.00;3.00
76049;PMS7003;64967;50.234;19.224;2023-09-18T04:50:02;5.25;5.25;4.25
76049;PMS7003;64967;50.234;19.224;2023-09-18T04:52:38;4.33;3.33;3.33
76049;PMS7003;64967;50.234;19.224;2023-09-18T04:55:07;5.00;4.67;4.00
76049;PMS7003;64967;50.234;19.224;2023-09-18T04:57:35;4.00;4.00;3.00
76049;PMS7003;64967;50.234;19.224;2023-09-18T05:00:02;4.00;4.00;3.67
76049;PMS7003;64967;50.234;19.224;2023-09-18T05:02:42;5.00;5.00;5.00
76049;PMS7003;64967;50.234;19.224;2023-09-18T05:05:09;6.33;6.00;5.00
76049;PMS7003;64967;50.234;19.224;2023-09-18T05:07:36;4.33;4.33;3.00
76049;PMS7003;64967;50.234;19.224;2023-09-18T05:10:04;5.67;5.00;4.00
76049;PMS7003;64967;50.234;19.224;2023-09-18T05:12:31;2.00;2.00;1.00
76049;PMS7003;64967;50.234;19.224;2023-09-18T05:14:58;10.00;9.25;7.00
76049;PMS7003;64967;50.234;19.224;2023-09-18T05:17:44;8.00;6.00;5.00
76049;PMS7003;64967;50.234;19.224;2023-09-18T05:20:19;7.00;5.25;4.75
76049;PMS7003;64967;50.234;19.224;2023-09-18T05:22:45;13.25;12.00;8.00
76049;PMS7003;64967;50.234;19.224;2023-09-18T05:25:12;11.25;11.25;9.00
76049;PMS7003;64967;50.234;19.224;2023-09-18T05:27:42;10.75;10.00;8.50
76049;PMS7003;64967;50.234;19.224;2023-09-18T05:30:12;11.00;10.00;8.25
76049;PMS7003;64967;50.234;19.224;2023-09-18T05:32:44;12.00;11.75;9.00
76049;PMS7003;64967;50.234;19.224;2023-09-18T05:35:12;8.75;8.75;8.00
76049;PMS7003;64967;50.234;19.224;2023-09-18T05:37:42;8.75;8.75;6.50
76049;PMS7003;64967;50.234;19.224;2023-09-18T05:40:11;6.25;6.25;5.25
76049;PMS7003;64967;50.234;19.224;2023-09-18T05:42:40;6.50;6.25;5.25
76049;PMS7003;64967;50.234;19.224;2023-09-18T05:45:12;6.33;6.00;5.00
76049;PMS7003;64967;50.234;19.224;2023-09-18T05:47:41;4.33;4.33;4.00
76049;PMS7003;64967;50.234;19.224;2023-09-18T05:50:10;4.33;4.00;4.00
76049;PMS7003;64967;50.234;19.224;2023-09-18T05:52:45;3.00;3.00;2.67
76049;PMS7003;64967;50.234;19.224;2023-09-18T05:55:14;4.00;4.00;4.00
76049;PMS7003;64967;50.234;19.224;2023-09-18T05:57:41;4.33;4.00;4.00
76049;PMS7003;64967;50.234;19.224;2023-09-18T06:00:09;5.00;5.00;4.00
76049;PMS7003;64967;50.234;19.224;2023-09-18T06:02:40;7.00;6.33;5.00
76049;PMS7003;64967;50.234;19.224;2023-09-18T06:05:08;6.00;6.00;5.00
76049;PMS7003;64967;50.234;19.224;2023-09-18T06:07:38;6.67;6.00;5.00
76049;PMS7003;64967;50.234;19.224;2023-09-18T06:10:05;7.00;7.00;5.33
76049;PMS7003;64967;50.234;19.224;2023-09-18T06:12:32;5.33;4.67;3.67
76049;PMS7003;64967;50.234;19.224;2023-09-18T06:14:59;5.00;5.00;4.33
76049;PMS7003;64967;50.234;19.224;2023-09-18T06:17:26;6.00;6.00;4.00
76049;PMS7003;64967;50.234;19.224;2023-09-18T06:19:53;4.00;3.00;2.00
76049;PMS7003;64967;50.234;19.224;2023-09-18T06:22:20;4.67;4.67;4.00
76049;PMS7003;64967;50.234;19.224;2023-09-18T06:24:50;4.00;4.00;3.33
76049;PMS7003;64967;50.234;19.224;2023-09-18T06:27:16;5.00;5.00;4.67
76049;PMS7003;64967;50.234;19.224;2023-09-18T06:29:45;8.00;7.00;6.00
76049;PMS7003;64967;50.234;19.224;2023-09-18T06:32:12;7.00;6.33;5.00
76049;PMS7003;64967;50.234;19.224;2023-09-18T06:34:38;8.33;8.33;6.33
76049;PMS7003;64967;50.234;19.224;2023-09-18T06:37:09;6.33;6.33;6.00
76049;PMS7003;64967;50.234;19.224;2023-09-18T06:39:39;6.67;6.67;5.33
76049;PMS7003;64967;50.234;19.224;2023-09-18T06:42:05;7.00;7.00;5.67
76049;PMS7003;64967;50.234;19.224;2023-09-18T06:44:32;7.33;7.00;6.00
76049;PMS7003;64967;50.234;19.224;2023-09-18T06:46:59;8.00;8.00;6.00
76049;PMS7003;64967;50.234;19.224;2023-09-18T06:49:28;7.00;6.33;6.00
76049;PMS7003;64967;50.234;19.224;2023-09-18T06:51:55;8.00;6.67;5.67
76049;PMS7003;64967;50.234;19.224;2023-09-18T06:54:21;9.33;9.33;7.67
76049;PMS7003;64967;50.234;19.224;2023-09-18T06:56:49;7.00;7.00;7.00
76049;PMS7003;64967;50.234;19.224;2023-09-18T06:59:16;6.67;6.67;5.67
76049;PMS7003;64967;50.234;19.224;2023-09-18T07:01:43;8.33;8.33;6.67
76049;PMS7003;64967;50.234;19.224;2023-09-18T07:04:10;8.67;8.67;7.67
76049;PMS7003;64967;50.234;19.224;2023-09-18T07:06:37;7.33;7.00;6.00
76049;PMS7003;64967;50.234;19.224;2023-09-18T07:09:04;7.00;6.67;5.67
76049;PMS7003;64967;50.234;19.224;2023-09-18T07:11:33;7.67;7.67;5.00
76049;PMS7003;64967;50.234;19.224;2023-09-18T07:14:01;7.67;7.00;5.67
76049;PMS7003;64967;50.234;19.224;2023-09-18T07:16:28;7.33;7.33;6.67
76049;PMS7003;64967;50.234;19.224;2023-09-18T07:18:55;9.00;8.00;6.33
76049;PMS7003;64967;50.234;19.224;2023-09-18T07:21:22;11.67;10.00;7.33
76049;PMS7003;64967;50.234;19.224;2023-09-18T07:23:49;10.00;9.33;7.33
76049;PMS7003;64967;50.234;19.224;2023-09-18T07:26:16;9.67;8.00;7.00
76049;PMS7003;64967;50.234;19.224;2023-09-18T07:28:43;8.67;8.00;7.00
76049;PMS7003;64967;50.234;19.224;2023-09-18T07:31:11;7.33;6.67;6.00
76049;PMS7003;64967;50.234;19.224;2023-09-18T07:33:38;10.00;8.33;7.00
76049;PMS7003;64967;50.234;19.224;2023-09-18T07:36:05;7.00;7.00;5.00
76049;PMS7003;64967;50.234;19.224;2023-09-18T07:38:32;9.00;9.00;7.00
76049;PMS7003;64967;50.234;19.224;2023-09-18T07:40:59;14.00;13.33;9.67
76049;PMS7003;64967;50.234;19.224;2023-09-18T07:43:26;9.33;9.33;8.00
76049;PMS7003;64967;50.234;19.224;2023-09-18T07:45:53;9.00;8.67;6.00
76049;PMS7003;64967;50.234;19.224;2023-09-18T07:48:24;10.00;9.00;8.00
76049;PMS7003;64967;50.234;19.224;2023-09-18T07:50:51;7.33;7.00;6.00
76049;PMS7003;64967;50.234;19.224;2023-09-18T07:53:18;7.33;7.33;5.33
76049;PMS7003;64967;50.234;19.224;2023-09-18T07:55:47;6.00;6.00;4.67
76049;PMS7003;64967;50.234;19.224;2023-09-18T07:58:15;12.67;10.67;8.67
76049;PMS7003;64967;50.234;19.224;2023-09-18T08:00:41;8.67;8.00;6.00
76049;PMS7003;64967;50.234;19.224;2023-09-18T08:03:08;7.00;6.33;5.33
76049;PMS7003;64967;50.234;19.224;2023-09-18T08:05:35;6.00;6.00;5.67
76049;PMS7003;64967;50.234;19.224;2023-09-18T08:08:03;5.00;5.00;4.00
76049;PMS7003;64967;50.234;19.224;2023-09-18T08:10:38;9.00;8.33;7.00
76049;PMS7003;64967;50.234;19.224;2023-09-18T08:13:07;10.00;8.67;7.00
76049;PMS7003;64967;50.234;19.224;2023-09-18T08:15:33;6.67;6.00;5.00
76049;PMS7003;64967;50.234;19.224;2023-09-18T08:18:00;11.00;9.33;7.67
76049;PMS7003;64967;50.234;19.224;2023-09-18T08:20:27;11.00;10.33;8.00
76049;PMS7003;64967;50.234;19.224;2023-09-18T08:22:55;8.67;8.00;7.00
76049;PMS7003;64967;50.234;19.224;2023-09-18T08:25:23;8.00;7.00;5.00
76049;PMS7003;64967;50.234;19.224;2023-09-18T08:27:50;6.67;6.67;6.00
76049;PMS7003;64967;50.234;19.224;2023-09-18T08:30:17;6.33;6.00;5.00
76049;PMS7003;64967;50.234;19.224;2023-09-18T08:32:47;9.00;8.33;7.00
76049;PMS7003;64967;50.234;19.224;2023-09-18T08:35:14;15.67;14.67;12.00
76049;PMS7003;64967;50.234;19.224;2023-09-18T08:37:41;15.67;15.67;12.67
76049;PMS7003;64967;50.234;19.224;2023-09-18T08:40:10;15.00;14.67;13.00
76049;PMS7003;64967;50.234;19.224;2023-09-18T08:42:42;15.00;15.00;12.00
76049;PMS7003;64967;50.234;19.224;2023-09-18T08:45:14;12.33;12.00;9.00
76049;PMS7003;64967;50.234;19.224;2023-09-18T08:47:48;13.00;11.33;11.00
76049;PMS7003;64967;50.234;19.224;2023-09-18T08:50:17;11.67;11.67;10.33
76049;PMS7003;64967;50.234;19.224;2023-09-18T08:52:46;9.00;9.00;7.33
76049;PMS7003;64967;50.234;19.224;2023-09-18T08:55:15;12.33;12.00;9.67
76049;PMS7003;64967;50.234;19.224;2023-09-18T08:57:44;12.33;11.67;9.00
76049;PMS7003;64967;50.234;19.224;2023-09-18T09:00:12;9.00;8.33;8.00
76049;PMS7003;64967;50.234;19.224;2023-09-18T09:02:43;11.67;11.33;9.33
76049;PMS7003;64967;50.234;19.224;2023-09-18T09:05:11;9.00;9.00;7.00
76049;PMS7003;64967;50.234;19.224;2023-09-18T09:07:38;11.33;11.00;10.00
76049;PMS7003;64967;50.234;19.224;2023-09-18T09:10:05;9.33;9.33;7.00
76049;PMS7003;64967;50.234;19.224;2023-09-18T09:12:51;13.67;13.67;10.67
76049;PMS7003;64967;50.234;19.224;2023-09-18T09:15:21;15.67;15.33;12.33
76049;PMS7003;64967;50.234;19.224;2023-09-18T09:17:51;13.00;13.00;10.33
76049;PMS7003;64967;50.234;19.224;2023-09-18T09:20:18;12.33;10.33;9.00
76049;PMS7003;64967;50.234;19.224;2023-09-18T09:22:45;13.67;12.00;9.00
76049;PMS7003;64967;50.234;19.224;2023-09-18T09:27:46;22.67;17.00;12.67
76049;PMS7003;64967;50.234;19.224;2023-09-18T09:30:20;13.67;12.67;9.00
76049;PMS7003;64967;50.234;19.224;2023-09-18T09:32:52;15.33;14.33;12.00
76049;PMS7003;64967;50.234;19.224;2023-09-18T09:35:21;12.33;12.00;10.00
76049;PMS7003;64967;50.234;19.224;2023-09-18T09:37:49;14.00;13.00;11.00
76049;PMS7003;64967;50.234;19.224;2023-09-18T09:40:18;15.00;14.00;11.00
76049;PMS7003;64967;50.234;19.224;2023-09-18T09:42:46;10.00;10.00;8.00
76049;PMS7003;64967;50.234;19.224;2023-09-18T09:45:15;10.00;10.00;7.00
76049;PMS7003;64967;50.234;19.224;2023-09-18T09:47:45;13.00;10.00;7.33
76049;PMS7003;64967;50.234;19.224;2023-09-18T09:50:13;11.00;10.67;9.00
76049;PMS7003;64967;50.234;19.224;2023-09-18T09:52:43;9.67;9.67;8.33
76049;PMS7003;64967;50.234;19.224;2023-09-18T09:55:20;11.00;11.00;8.00
76049;PMS7003;64967;50.234;19.224;2023-09-18T09:57:47;11.67;11.00;9.33
76049;PMS7003;64967;50.234;19.224;2023-09-18T10:00:15;11.00;10.00;8.67
76049;PMS7003;64967;50.234;19.224;2023-09-18T10:02:57;13.00;10.33;9.00
76049;PMS7003;64967;50.234;19.224;2023-09-18T10:05:30;11.67;11.67;10.00
76049;PMS7003;64967;50.234;19.224;2023-09-18T10:08:00;13.33;12.33;10.00
76049;PMS7003;64967;50.234;19.224;2023-09-18T10:10:31;10.33;10.33;8.00
76049;PMS7003;64967;50.234;19.224;2023-09-18T10:13:01;11.00;11.00;8.67
76049;PMS7003;64967;50.234;19.224;2023-09-18T10:15:34;14.00;13.33;10.67
76049;PMS7003;64967;50.234;19.224;2023-09-18T10:18:06;10.33;9.67;7.67
76049;PMS7003;64967;50.234;19.224;2023-09-18T10:20:39;10.00;9.00;8.33
76049;PMS7003;64967;50.234;19.224;2023-09-18T10:23:12;18.67;17.00;13.33
76049;PMS7003;64967;50.234;19.224;2023-09-18T10:25:50;13.33;13.33;11.00
76049;PMS7003;64967;50.234;19.224;2023-09-18T10:28:23;11.67;11.00;9.00
76049;PMS7003;64967;50.234;19.224;2023-09-18T10:30:51;10.33;10.33;9.00
76049;PMS7003;64967;50.234;19.224;2023-09-18T10:33:18;12.00;11.67;9.33
76049;PMS7003;64967;50.234;19.224;2023-09-18T10:35:46;12.00;10.00;8.00
76049;PMS7003;64967;50.234;19.224;2023-09-18T10:38:14;10.00;10.00;8.67
76049;PMS7003;64967;50.234;19.224;2023-09-18T10:40:43;13.33;13.00;10.33
76049;PMS7003;64967;50.234;19.224;2023-09-18T10:43:10;14.33;13.67;11.00
76049;PMS7003;64967;50.234;19.224;2023-09-18T10:45:38;13.00;12.67;10.00
76049;PMS7003;64967;50.234;19.224;2023-09-18T10:48:06;13.00;12.00;9.33
76049;PMS7003;64967;50.234;19.224;2023-09-18T10:50:35;11.67;11.67;9.33
76049;PMS7003;64967;50.234;19.224;2023-09-18T10:53:03;11.33;11.33;9.67
76049;PMS7003;64967;50.234;19.224;2023-09-18T10:55:30;13.33;12.33;10.67
76049;PMS7003;64967;50.234;19.224;2023-09-18T10:57:59;13.67;13.00;11.00
76049;PMS7003;64967;50.234;19.224;2023-09-18T11:00:28;12.00;11.67;9.67
76049;PMS7003;64967;50.234;19.224;2023-09-18T11:03:09;12.67;12.67;10.67
76049;PMS7003;64967;50.234;19.224;2023-09-18T11:05:39;18.33;15.33;12.00
76049;PMS7003;64967;50.234;19.224;2023-09-18T11:08:25;13.00;12.00;9.33
76049;PMS7003;64967;50.234;19.224;2023-09-18T11:10:58;12.67;12.00;10.00
76049;PMS7003;64967;50.234;19.224;2023-09-18T11:13:31;11.33;11.00;9.00
76049;PMS7003;64967;50.234;19.224;2023-09-18T11:16:02;10.00;9.33;9.00
76049;PMS7003;64967;50.234;19.224;2023-09-18T11:18:41;10.33;10.33;8.67
76049;PMS7003;64967;50.234;19.224;2023-09-18T11:21:11;15.00;15.00;11.00
76049;PMS7003;64967;50.234;19.224;2023-09-18T11:23:39;13.33;13.00;10.00
76049;PMS7003;64967;50.234;19.224;2023-09-18T11:26:14;9.00;8.33;7.00
76049;PMS7003;64967;50.234;19.224;2023-09-18T11:28:41;10.00;9.33;7.33
76049;PMS7003;64967;50.234;19.224;2023-09-18T11:31:10;16.33;13.67;11.00
76049;PMS7003;64967;50.234;19.224;2023-09-18T11:33:38;12.33;12.33;9.33
76049;PMS7003;64967;50.234;19.224;2023-09-18T11:36:07;11.33;10.00;8.67
76049;PMS7003;64967;50.234;19.224;2023-09-18T11:38:54;10.67;10.67;8.00
76049;PMS7003;64967;50.234;19.224;2023-09-18T11:41:25;10.33;9.67;8.33
76049;PMS7003;64967;50.234;19.224;2023-09-18T11:46:40;9.33;9.33;7.00
76049;PMS7003;64967;50.234;19.224;2023-09-18T11:49:11;8.67;8.00;7.00
76049;PMS7003;64967;50.234;19.224;2023-09-18T11:51:46;8.00;8.00;7.00
76049;PMS7003;64967;50.234;19.224;2023-09-18T11:54:13;8.00;7.00;5.67
76049;PMS7003;64967;50.234;19.224;2023-09-18T11:56:41;8.00;7.67;6.67
76049;PMS7003;64967;50.234;19.224;2023-09-18T11:59:09;8.00;7.00;6.00
76049;PMS7003;64967;50.234;19.224;2023-09-18T12:01:36;11.33;11.33;10.00
76049;PMS7003;64967;50.234;19.224;2023-09-18T12:04:05;13.67;13.00;10.33
76049;PMS7003;64967;50.234;19.224;2023-09-18T12:06:35;11.33;11.33;8.00
76049;PMS7003;64967;50.234;19.224;2023-09-18T12:09:03;9.00;9.00;8.00
76049;PMS7003;64967;50.234;19.224;2023-09-18T12:11:30;9.67;9.00;7.67
76049;PMS7003;64967;50.234;19.224;2023-09-18T12:13:57;7.00;7.00;6.00
76049;PMS7003;64967;50.234;19.224;2023-09-18T12:16:24;9.00;9.00;7.00
76049;PMS7003;64967;50.234;19.224;2023-09-18T12:18:52;10.67;10.00;7.67
76049;PMS7003;64967;50.234;19.224;2023-09-18T12:21:18;8.00;7.00;6.00
76049;PMS7003;64967;50.234;19.224;2023-09-18T12:23:46;7.00;7.00;6.33
76049;PMS7003;64967;50.234;19.224;2023-09-18T12:26:13;5.33;5.33;4.00
76049;PMS7003;64967;50.234;19.224;2023-09-18T12:28:42;8.67;7.67;6.67
76049;PMS7003;64967;50.234;19.224;2023-09-18T12:31:10;10.00;10.00;8.33
76049;PMS7003;64967;50.234;19.224;2023-09-18T12:33:46;6.67;5.67;4.67
76049;PMS7003;64967;50.234;19.224;2023-09-18T12:36:20;10.00;8.33;7.00
76049;PMS7003;64967;50.234;19.224;2023-09-18T12:38:57;8.33;8.33;7.67
76049;PMS7003;64967;50.234;19.224;2023-09-18T12:41:25;8.00;7.33;5.33
76049;PMS7003;64967;50.234;19.224;2023-09-18T12:43:58;7.00;7.00;6.00
76049;PMS7003;64967;50.234;19.224;2023-09-18T12:46:25;7.33;7.33;7.00
76049;PMS7003;64967;50.234;19.224;2023-09-18T12:48:52;6.00;6.00;5.00
76049;PMS7003;64967;50.234;19.224;2023-09-18T12:51:28;9.00;9.00;7.00
76049;PMS7003;64967;50.234;19.224;2023-09-18T12:54:01;10.33;10.00;8.33
76049;PMS7003;64967;50.234;19.224;2023-09-18T12:56:39;10.00;8.00;7.00
76049;PMS7003;64967;50.234;19.224;2023-09-18T12:59:07;7.67;7.67;6.67
76049;PMS7003;64967;50.234;19.224;2023-09-18T13:01:45;6.00;6.00;5.67
76049;PMS7003;64967;50.234;19.224;2023-09-18T13:04:14;6.67;6.67;5.67
76049;PMS7003;64967;50.234;19.224;2023-09-18T13:06:41;6.33;6.33;4.33
76049;PMS7003;64967;50.234;19.224;2023-09-18T13:09:17;6.00;5.33;5.00
76049;PMS7003;64967;50.234;19.224;2023-09-18T13:11:56;8.00;7.00;6.33
76049;PMS7003;64967;50.234;19.224;2023-09-18T13:14:23;8.00;8.00;7.00
76049;PMS7003;64967;50.234;19.224;2023-09-18T13:16:51;8.00;7.67;6.33
76049;PMS7003;64967;50.234;19.224;2023-09-18T13:19:18;6.00;6.00;5.67
76049;PMS7003;64967;50.234;19.224;2023-09-18T13:21:48;9.00;8.33;6.00
76049;PMS7003;64967;50.234;19.224;2023-09-18T13:24:26;8.00;8.00;6.00
76049;PMS7003;64967;50.234;19.224;2023-09-18T13:26:57;7.33;6.67;5.33
76049;PMS7003;64967;50.234;19.224;2023-09-18T13:29:25;8.00;8.00;7.00
76049;PMS7003;64967;50.234;19.224;2023-09-18T13:31:53;9.00;9.00;7.33
76049;PMS7003;64967;50.234;19.224;2023-09-18T13:34:19;8.67;8.00;6.67
76049;PMS7003;64967;50.234;19.224;2023-09-18T13:36:47;9.33;8.00;7.00
76049;PMS7003;64967;50.234;19.224;2023-09-18T13:39:14;7.33;7.33;6.33
76049;PMS7003;64967;50.234;19.224;2023-09-18T13:41:44;8.67;8.00;7.00
76049;PMS7003;64967;50.234;19.224;2023-09-18T13:44:11;7.33;7.33;6.33
76049;PMS7003;64967;50.234;19.224;2023-09-18T13:46:38;7.33;7.00;5.00
76049;PMS7003;64967;50.234;19.224;2023-09-18T13:49:05;5.00;4.67;3.33
76049;PMS7003;64967;50.234;19.224;2023-09-18T13:51:33;12.00;11.00;9.00
76049;PMS7003;64967;50.234;19.224;2023-09-18T13:54:00;11.33;10.33;9.00
76049;PMS7003;64967;50.234;19.224;2023-09-18T13:56:27;8.33;8.33;7.00
76049;PMS7003;64967;50.234;19.224;2023-09-18T13:58:57;8.00;8.00;7.33
76049;PMS7003;64967;50.234;19.224;2023-09-18T14:01:26;9.67;9.00;7.00
76049;PMS7003;64967;50.234;19.224;2023-09-18T14:03:55;6.33;6.33;5.33
76049;PMS7003;64967;50.234;19.224;2023-09-18T14:06:21;7.67;7.00;6.00
76049;PMS7003;64967;50.234;19.224;2023-09-18T14:08:49;4.67;4.67;4.00
76049;PMS7003;64967;50.234;19.224;2023-09-18T14:11:16;5.33;5.00;5.00
76049;PMS7003;64967;50.234;19.224;2023-09-18T14:13:44;6.00;6.00;4.33
76049;PMS7003;64967;50.234;19.224;2023-09-18T14:16:11;5.33;5.33;4.00
76049;PMS7003;64967;50.234;19.224;2023-09-18T14:18:41;10.67;8.67;7.67